createdAt,value
2024-03-03T00:01:32.544Z,0.50
2024-03-03T00:04:01.213Z,0.37
2024-03-03T00:06:31.344Z,0.80
2024-03-03T00:08:59.954Z,0.60
2024-03-03T00:11:29.173Z,0.20
2024-03-03T00:13:57.815Z,0.50
2024-03-03T00:16:26.453Z,0.50
2024-03-03T00:18:55.099Z,0.77
2024-03-03T00:21:23.842Z,0.50
2024-03-03T00:23:53.802Z,0.70
2024-03-03T00:26:22.297Z,0.30
2024-03-03T00:28:50.982Z,0.50
2024-03-03T00:31:20.335Z,0.60
2024-03-03T00:33:49.003Z,0.50
2024-03-03T00:36:17.777Z,0.30
2024-03-03T00:38:46.294Z,0.40
2024-03-03T00:41:16.292Z,1.17
2024-03-03T00:43:45.256Z,0.40
2024-03-03T00:46:14.007Z,0.20
2024-03-03T00:48:42.798Z,0.60
2024-03-03T00:51:11.516Z,0.20
2024-03-03T00:53:40.113Z,0.50
2024-03-03T00:56:09.156Z,0.30
2024-03-03T00:58:39.308Z,0.57
2024-03-03T01:01:07.865Z,0.30
2024-03-03T01:03:36.536Z,0.37
2024-03-03T01:06:05.255Z,0.40
2024-03-03T01:08:33.759Z,0.20
2024-03-03T01:11:02.541Z,0.30
2024-03-03T01:13:31.177Z,0.40
2024-03-03T01:16:01.143Z,0.37
2024-03-03T01:18:30.933Z,0.30
2024-03-03T01:20:59.644Z,0.40
2024-03-03T01:23:28.182Z,0.70
2024-03-03T01:25:56.725Z,0.40
2024-03-03T01:28:25.318Z,0.50
2024-03-03T01:30:53.953Z,0.40
2024-03-03T01:33:23.949Z,0.30
2024-03-03T01:35:52.428Z,0.30
2024-03-03T01:38:20.934Z,0.50
2024-03-03T01:40:52.974Z,0.40
2024-03-03T01:43:21.566Z,0.40
2024-03-03T01:45:50.241Z,0.50
2024-03-03T01:48:18.979Z,0.67
2024-03-03T01:50:50.300Z,0.97
2024-03-03T01:53:20.636Z,0.70
2024-03-03T01:55:50.737Z,0.70
2024-03-03T01:58:20.414Z,0.97
2024-03-03T02:00:50.333Z,0.80
2024-03-03T02:03:20.729Z,0.30
2024-03-03T02:05:50.991Z,0.30
2024-03-03T02:08:20.169Z,0.73
2024-03-03T02:10:49.274Z,0.70
2024-03-03T02:13:18.157Z,0.40
2024-03-03T02:15:46.952Z,0.30
2024-03-03T02:18:15.499Z,1.27
2024-03-03T02:20:44.333Z,0.50
2024-03-03T02:23:14.408Z,1.60
2024-03-03T02:25:43.467Z,1.00
2024-03-03T02:28:13.048Z,0.63
2024-03-03T02:30:41.602Z,0.80
2024-03-03T02:33:10.271Z,1.17
2024-03-03T02:35:38.815Z,0.70
2024-03-03T02:38:08.107Z,0.67
2024-03-03T02:40:38.051Z,0.40
2024-03-03T02:43:10.439Z,0.60
2024-03-03T02:45:39.236Z,0.97
2024-03-03T02:48:08.536Z,0.70
2024-03-03T02:50:37.569Z,1.10
2024-03-03T02:53:06.673Z,0.60
2024-03-03T02:55:35.254Z,1.20
2024-03-03T02:58:05.386Z,0.40
2024-03-03T03:00:34.678Z,0.37
2024-03-03T03:03:03.768Z,1.00
2024-03-03T03:05:32.579Z,0.57
2024-03-03T03:08:01.232Z,0.40
2024-03-03T03:10:30.034Z,1.33
2024-03-03T03:12:58.694Z,0.60
2024-03-03T03:15:29.534Z,0.50
2024-03-03T03:17:58.296Z,0.60
2024-03-03T03:20:26.837Z,0.30
2024-03-03T03:22:55.385Z,1.33
2024-03-03T03:25:24.021Z,0.33
2024-03-03T03:27:52.559Z,0.50
2024-03-03T03:30:21.245Z,1.20
2024-03-03T03:32:51.468Z,0.83
2024-03-03T03:35:20.383Z,0.30
2024-03-03T03:37:48.940Z,0.40
2024-03-03T03:40:17.628Z,0.40
2024-03-03T03:42:46.292Z,0.67
2024-03-03T03:45:14.950Z,0.30
2024-03-03T03:47:43.633Z,0.50
2024-03-03T03:50:13.718Z,0.40
2024-03-03T03:52:42.322Z,0.70
2024-03-03T03:55:11.559Z,0.70
2024-03-03T03:57:40.433Z,0.50
2024-03-03T04:00:11.352Z,0.40
2024-03-03T04:02:39.930Z,1.07
2024-03-03T04:05:09.048Z,0.50
2024-03-03T04:07:39.166Z,1.27
2024-03-03T04:10:08.848Z,1.00
2024-03-03T04:12:37.443Z,1.53
2024-03-03T04:15:06.856Z,1.00
2024-03-03T04:17:35.445Z,0.50
2024-03-03T04:20:05.764Z,0.43
2024-03-03T04:22:34.365Z,0.80
2024-03-03T04:25:05.130Z,0.70
2024-03-03T04:27:33.929Z,0.30
2024-03-03T04:30:04.492Z,0.40
2024-03-03T04:32:33.457Z,0.40
2024-03-03T04:35:04.263Z,0.60
2024-03-03T04:37:32.908Z,0.50
2024-03-03T04:40:00.567Z,0.47
2024-03-03T04:42:30.639Z,0.60
2024-03-03T04:44:59.296Z,0.60
2024-03-03T04:47:28.368Z,0.50
2024-03-03T04:49:56.926Z,0.83
2024-03-03T04:52:25.489Z,0.40
2024-03-03T04:54:54.207Z,0.53
2024-03-03T04:57:22.925Z,0.67
2024-03-03T04:59:52.931Z,1.23
2024-03-03T05:02:21.682Z,0.50
2024-03-03T05:04:50.204Z,0.57
2024-03-03T05:07:18.883Z,0.40
2024-03-03T05:09:48.298Z,0.77
2024-03-03T05:12:16.927Z,0.60
2024-03-03T05:14:45.576Z,0.87
2024-03-03T05:17:15.753Z,0.90
2024-03-03T05:19:44.961Z,0.77
2024-03-03T05:22:13.762Z,1.30
2024-03-03T05:24:42.559Z,0.70
2024-03-03T05:27:11.090Z,0.93
2024-03-03T05:29:40.350Z,2.50
2024-03-03T05:32:09.025Z,0.80
2024-03-03T05:34:39.032Z,1.07
2024-03-03T05:37:07.581Z,0.90
2024-03-03T05:39:36.267Z,0.97
2024-03-03T05:42:05.303Z,0.87
2024-03-03T05:44:36.263Z,1.30
2024-03-03T05:47:06.792Z,0.33
2024-03-03T05:49:37.230Z,0.50
2024-03-03T05:52:07.464Z,0.40
2024-03-03T05:54:38.655Z,0.80
2024-03-03T05:57:08.120Z,0.50
2024-03-03T05:59:36.791Z,1.43
2024-03-03T06:02:05.914Z,0.50
2024-03-03T06:04:36.911Z,0.90
2024-03-03T06:07:07.431Z,1.37
2024-03-03T06:09:36.671Z,1.27
2024-03-03T06:12:07.011Z,0.60
2024-03-03T06:14:36.040Z,1.40
2024-03-03T06:17:04.841Z,0.90
2024-03-03T06:19:33.385Z,1.33
2024-03-03T06:22:02.771Z,0.97
2024-03-03T06:24:36.077Z,0.77
2024-03-03T06:27:04.782Z,0.50
2024-03-03T06:29:36.383Z,0.60
2024-03-03T06:32:05.148Z,0.57
2024-03-03T06:34:33.786Z,1.13
2024-03-03T06:37:02.642Z,0.57
2024-03-03T06:39:32.786Z,0.70
2024-03-03T06:42:01.499Z,1.07
2024-03-03T06:44:32.470Z,0.80
2024-03-03T06:47:02.885Z,1.27
2024-03-03T06:49:31.648Z,1.40
2024-03-03T06:52:00.164Z,1.60
2024-03-03T06:54:28.899Z,0.77
2024-03-03T06:56:59.083Z,1.87
2024-03-03T06:59:28.646Z,1.60
2024-03-03T07:01:57.499Z,1.87
2024-03-03T07:04:26.805Z,2.00
2024-03-03T07:06:56.010Z,1.80
2024-03-03T07:09:25.056Z,0.50
2024-03-03T07:11:54.437Z,0.60
2024-03-03T07:14:27.457Z,1.60
2024-03-03T07:16:56.433Z,3.73
2024-03-03T07:19:25.456Z,4.37
2024-03-03T07:21:54.144Z,5.90
2024-03-03T07:24:22.753Z,5.67
2024-03-03T07:26:51.287Z,4.47
2024-03-03T07:29:20.106Z,2.23
2024-03-03T07:31:50.125Z,3.80
2024-03-03T07:34:18.692Z,2.67
2024-03-03T07:36:48.679Z,4.53
2024-03-03T07:39:17.190Z,2.63
2024-03-03T07:41:45.763Z,3.13
2024-03-03T07:44:14.375Z,3.23
2024-03-03T07:46:42.961Z,3.50
2024-03-03T07:49:12.982Z,1.97
2024-03-03T07:51:42.096Z,1.90
2024-03-03T07:54:10.622Z,2.47
2024-03-03T07:56:39.075Z,2.13
2024-03-03T07:59:07.721Z,1.70
2024-03-03T08:01:37.020Z,1.23
2024-03-03T08:04:07.923Z,1.57
2024-03-03T08:06:38.164Z,2.47
2024-03-03T08:09:07.252Z,1.57
2024-03-03T08:11:35.926Z,1.40
2024-03-03T08:14:05.831Z,0.93
2024-03-03T08:16:35.489Z,1.13
2024-03-03T08:19:04.694Z,0.87
2024-03-03T08:21:37.794Z,1.10
2024-03-03T08:24:08.062Z,0.90
2024-03-03T08:26:37.575Z,1.70
2024-03-03T08:29:06.966Z,0.73
2024-03-03T08:31:37.011Z,0.97
2024-03-03T08:34:05.733Z,1.07
2024-03-03T08:36:34.297Z,0.70
2024-03-03T08:39:02.816Z,0.50
2024-03-03T08:41:34.224Z,1.20
2024-03-03T08:44:02.727Z,0.50
2024-03-03T08:46:32.293Z,0.50
2024-03-03T08:49:00.996Z,0.53
2024-03-03T08:51:29.657Z,0.50
2024-03-03T08:53:58.248Z,0.47
2024-03-03T08:56:26.799Z,0.80
2024-03-03T08:59:15.089Z,0.57
2024-03-03T09:01:43.871Z,0.50
2024-03-03T09:04:14.073Z,1.10
2024-03-03T09:06:43.002Z,0.50
2024-03-03T09:09:11.946Z,0.53
2024-03-03T09:11:40.620Z,0.60
2024-03-03T09:14:10.685Z,0.80
2024-03-03T09:16:39.790Z,0.30
2024-03-03T09:19:08.425Z,0.30
2024-03-03T09:21:37.908Z,0.50
2024-03-03T09:24:08.332Z,0.40
2024-03-03T09:26:37.962Z,0.50
2024-03-03T09:29:06.596Z,0.30
2024-03-03T09:31:36.572Z,0.70
2024-03-03T09:34:05.231Z,0.67
2024-03-03T09:36:36.131Z,0.40
2024-03-03T09:39:06.379Z,0.60
2024-03-03T09:41:35.436Z,0.43
2024-03-03T09:44:12.319Z,1.63
2024-03-03T09:46:44.707Z,0.40
2024-03-03T09:49:19.728Z,0.80
2024-03-03T09:51:49.828Z,0.70
2024-03-03T09:54:20.620Z,0.50
2024-03-03T09:56:52.934Z,0.73
2024-03-03T09:59:21.779Z,0.57
2024-03-03T10:01:56.295Z,0.53
2024-03-03T10:04:25.517Z,0.33
2024-03-03T10:06:56.271Z,0.70
2024-03-03T10:09:27.746Z,0.53
2024-03-03T10:11:59.885Z,0.47
2024-03-03T10:14:29.629Z,0.47
2024-03-03T10:17:00.714Z,0.50
2024-03-03T10:19:31.191Z,0.30
2024-03-03T10:22:02.349Z,0.40
2024-03-03T10:24:31.085Z,0.47
2024-03-03T10:27:01.936Z,0.30
2024-03-03T10:29:33.105Z,1.07
2024-03-03T10:32:11.125Z,0.40
2024-03-03T10:34:38.673Z,0.30
2024-03-03T10:37:07.996Z,0.30
2024-03-03T10:39:38.711Z,0.40
2024-03-03T10:42:10.196Z,0.40
2024-03-03T10:44:38.832Z,0.20
2024-03-03T10:47:10.795Z,0.30
2024-03-03T10:49:41.504Z,0.40
2024-03-03T10:52:11.427Z,0.30
2024-03-03T10:54:40.705Z,0.40
2024-03-03T10:57:10.773Z,0.20
2024-03-03T10:59:41.499Z,0.40
2024-03-03T11:02:15.290Z,0.30
2024-03-03T11:04:44.823Z,0.40
2024-03-03T11:07:13.818Z,0.30
2024-03-03T11:09:44.608Z,0.30
2024-03-03T11:12:18.583Z,0.30
2024-03-03T11:14:48.589Z,0.30
2024-03-03T11:17:22.263Z,0.33
2024-03-03T11:19:52.078Z,1.17
2024-03-03T11:22:24.904Z,0.30
2024-03-03T11:25:00.554Z,0.30
2024-03-03T11:27:30.598Z,0.57
2024-03-03T11:29:59.755Z,0.70
2024-03-03T11:32:31.784Z,0.30
2024-03-03T11:35:01.164Z,0.50
2024-03-03T11:37:30.396Z,0.20
2024-03-03T11:40:01.829Z,0.30
2024-03-03T11:42:39.477Z,0.70
2024-03-03T11:45:10.532Z,0.40
2024-03-03T11:47:47.363Z,0.40
2024-03-03T11:50:20.874Z,0.30
2024-03-03T11:52:50.466Z,0.20
2024-03-03T11:55:24.188Z,0.30
2024-03-03T11:57:53.235Z,0.30
2024-03-03T12:00:25.857Z,0.80
2024-03-03T12:02:59.701Z,0.60
2024-03-03T12:05:29.399Z,0.30
2024-03-03T12:07:58.812Z,0.30
2024-03-03T12:10:28.400Z,0.30
2024-03-03T12:12:58.477Z,0.30
2024-03-03T12:15:28.738Z,0.30
2024-03-03T12:18:00.073Z,0.70
2024-03-03T12:20:30.171Z,0.70
2024-03-03T12:22:59.479Z,1.60
2024-03-03T12:25:28.444Z,0.40
2024-03-03T12:27:58.906Z,0.40
2024-03-03T12:30:36.674Z,0.63
2024-03-03T12:33:09.020Z,0.50
2024-03-03T12:35:38.783Z,0.80
2024-03-03T12:38:09.256Z,0.40
2024-03-03T12:40:38.350Z,0.40
2024-03-03T12:43:07.344Z,0.30
2024-03-03T12:45:36.459Z,0.20
2024-03-03T12:48:10.281Z,0.30
2024-03-03T12:50:38.858Z,0.30
2024-03-03T12:53:15.767Z,0.30
2024-03-03T12:55:52.065Z,0.30
2024-03-03T12:58:21.227Z,0.70
2024-03-03T13:00:51.118Z,0.30
2024-03-03T13:03:21.212Z,0.30
2024-03-03T13:05:50.384Z,0.30
2024-03-03T13:08:18.993Z,0.43
2024-03-03T13:10:48.429Z,0.30
2024-03-03T13:13:18.763Z,0.40
2024-03-03T13:15:53.524Z,0.63
2024-03-03T13:18:24.127Z,0.50
2024-03-03T13:20:52.700Z,0.40
2024-03-03T13:23:22.308Z,0.60
2024-03-03T13:25:53.762Z,0.40
2024-03-03T13:28:22.443Z,0.50
2024-03-03T13:31:01.165Z,0.30
2024-03-03T13:33:33.597Z,0.20
2024-03-03T13:36:03.007Z,0.40
2024-03-03T13:38:31.843Z,0.43
2024-03-03T13:41:00.471Z,0.30
2024-03-03T13:43:29.382Z,0.20
2024-03-03T13:45:58.364Z,1.00
2024-03-03T13:48:27.158Z,0.30
2024-03-03T13:50:58.930Z,0.30
2024-03-03T13:53:28.646Z,0.40
2024-03-03T13:55:57.375Z,0.50
2024-03-03T13:58:26.182Z,0.93
2024-03-03T14:00:54.824Z,0.50
2024-03-03T14:03:23.308Z,0.37
2024-03-03T14:05:52.359Z,0.50
2024-03-03T14:08:22.465Z,0.30
2024-03-03T14:10:51.261Z,0.20
2024-03-03T14:13:20.086Z,0.60
2024-03-03T14:15:48.720Z,0.30
2024-03-03T14:18:17.405Z,1.27
2024-03-03T14:20:46.552Z,0.30
2024-03-03T14:23:15.763Z,0.30
2024-03-03T14:25:45.928Z,0.40
2024-03-03T14:28:14.616Z,0.60
2024-03-03T14:30:43.270Z,0.43
2024-03-03T14:33:11.926Z,1.33
2024-03-03T14:35:40.625Z,1.40
2024-03-03T14:38:10.940Z,0.60
2024-03-03T14:40:40.703Z,0.30
2024-03-03T14:43:10.933Z,0.70
2024-03-03T14:45:39.569Z,0.40
2024-03-03T14:48:08.536Z,0.27
2024-03-03T14:50:37.135Z,0.47
2024-03-03T14:53:05.946Z,0.30
2024-03-03T14:55:36.306Z,0.73
2024-03-03T14:58:06.317Z,0.60
2024-03-03T15:00:36.297Z,0.47
2024-03-03T15:03:06.269Z,0.53
2024-03-03T15:05:34.789Z,0.33
2024-03-03T15:08:03.454Z,0.30
2024-03-03T15:10:35.554Z,0.30
2024-03-03T15:13:07.031Z,0.80
2024-03-03T15:15:38.423Z,0.20
2024-03-03T15:18:07.471Z,0.80
2024-03-03T15:20:38.372Z,0.20
2024-03-03T15:23:07.370Z,0.30
2024-03-03T15:25:36.178Z,0.30
2024-03-03T15:28:05.345Z,0.40
2024-03-03T15:30:33.983Z,0.40
2024-03-03T15:33:05.122Z,0.30
2024-03-03T15:35:33.811Z,0.30
2024-03-03T15:38:03.697Z,0.30
2024-03-03T15:40:32.470Z,0.43
2024-03-03T15:43:01.057Z,0.40
2024-03-03T15:45:29.614Z,0.43
2024-03-03T15:47:58.377Z,0.40
2024-03-03T15:50:28.392Z,0.30
2024-03-03T15:52:56.966Z,0.30
2024-03-03T15:55:25.564Z,0.40
2024-03-03T15:57:54.274Z,0.90
2024-03-03T16:00:23.444Z,1.03
2024-03-03T16:02:52.032Z,0.50
2024-03-03T16:05:22.814Z,0.50
2024-03-03T16:07:53.159Z,0.77
2024-03-03T16:10:21.693Z,0.37
2024-03-03T16:12:50.490Z,0.40
2024-03-03T16:15:19.068Z,0.50
2024-03-03T16:17:48.172Z,0.67
2024-03-03T16:20:18.349Z,0.80
2024-03-03T16:22:46.920Z,0.83
2024-03-03T16:25:17.603Z,2.10
2024-03-03T16:27:46.322Z,1.07
2024-03-03T16:30:15.141Z,0.30
2024-03-03T16:32:43.737Z,0.80
2024-03-03T16:35:12.467Z,0.73
2024-03-03T16:37:41.677Z,1.00
2024-03-03T16:40:11.707Z,0.60
2024-03-03T16:42:55.914Z,0.70
2024-03-03T16:45:25.760Z,0.40
2024-03-03T16:47:57.710Z,1.20
2024-03-03T16:50:26.452Z,0.40
2024-03-03T16:52:55.813Z,1.47
2024-03-03T16:55:25.944Z,1.33
2024-03-03T16:57:58.269Z,0.50
2024-03-03T17:00:27.181Z,0.70
2024-03-03T17:02:56.089Z,0.60
2024-03-03T17:05:25.603Z,0.53
2024-03-03T17:07:56.307Z,0.50
2024-03-03T17:10:24.884Z,0.60
2024-03-03T17:12:53.596Z,0.60
2024-03-03T17:15:24.453Z,0.40
2024-03-03T17:17:53.552Z,1.00
2024-03-03T17:20:22.118Z,0.70
2024-03-03T17:22:50.726Z,0.30
2024-03-03T17:25:19.501Z,0.60
2024-03-03T17:27:49.095Z,0.47
2024-03-03T17:30:20.248Z,0.57
2024-03-03T17:32:52.098Z,0.67
2024-03-03T17:35:20.723Z,0.47
2024-03-03T17:37:49.277Z,0.73
2024-03-03T17:40:17.964Z,0.40
2024-03-03T17:42:46.605Z,0.50
2024-03-03T17:45:16.399Z,0.60
2024-03-03T17:47:45.193Z,0.50
2024-03-03T17:50:15.677Z,1.27
2024-03-03T17:52:44.124Z,0.70
2024-03-03T17:55:12.941Z,0.60
2024-03-03T17:57:43.227Z,0.73
2024-03-03T18:00:14.258Z,0.80
2024-03-03T18:02:42.929Z,1.07
2024-03-03T18:05:11.810Z,0.63
2024-03-03T18:07:42.175Z,0.50
2024-03-03T18:10:12.242Z,0.70
2024-03-03T18:12:40.910Z,0.37
2024-03-03T18:15:11.056Z,0.57
2024-03-03T18:17:42.082Z,0.60
2024-03-03T18:20:11.695Z,0.90
2024-03-03T18:22:41.674Z,0.60
2024-03-03T18:25:11.259Z,0.90
2024-03-03T18:27:39.875Z,1.67
2024-03-03T18:30:09.985Z,1.77
2024-03-03T18:32:38.701Z,2.40
2024-03-03T18:35:10.378Z,2.57
2024-03-03T18:37:39.355Z,2.10
2024-03-03T18:40:11.461Z,2.10
2024-03-03T18:42:40.008Z,4.30
2024-03-03T18:45:09.218Z,2.87
2024-03-03T18:47:38.658Z,2.90
2024-03-03T18:50:08.496Z,2.27
2024-03-03T18:52:37.268Z,2.40
2024-03-03T18:55:06.511Z,2.27
2024-03-03T18:57:36.765Z,3.20
2024-03-03T19:00:08.653Z,2.77
2024-03-03T19:02:37.350Z,3.10
2024-03-03T19:05:07.940Z,2.40
2024-03-03T19:07:36.807Z,1.53
2024-03-03T19:10:06.132Z,2.80
2024-03-03T19:12:36.165Z,2.40
2024-03-03T19:15:05.278Z,1.20
2024-03-03T19:17:33.982Z,1.70
2024-03-03T19:20:02.545Z,0.97
2024-03-03T19:22:31.102Z,1.27
2024-03-03T19:24:59.857Z,2.20
2024-03-03T19:27:28.514Z,2.17
2024-03-03T19:29:59.297Z,1.77
2024-03-03T19:32:27.950Z,1.17
2024-03-03T19:34:56.658Z,0.77
2024-03-03T19:37:25.203Z,1.20
2024-03-03T19:39:55.602Z,0.30
2024-03-03T19:42:24.132Z,0.40
2024-03-03T19:44:52.683Z,0.70
2024-03-03T19:47:22.672Z,0.97
2024-03-03T19:49:51.254Z,0.60
2024-03-03T19:52:19.846Z,0.50
2024-03-03T19:54:48.481Z,1.27
2024-03-03T19:57:17.128Z,1.33
2024-03-03T19:59:46.056Z,1.43
2024-03-03T20:02:15.007Z,1.07
2024-03-03T20:04:45.100Z,1.67
2024-03-03T20:07:13.792Z,1.00
2024-03-03T20:09:44.669Z,1.67
2024-03-03T20:12:13.196Z,1.37
2024-03-03T20:14:43.389Z,2.27
2024-03-03T20:17:16.826Z,2.07
2024-03-03T20:19:47.653Z,1.00
2024-03-03T20:22:16.389Z,1.33
2024-03-03T20:24:45.047Z,0.70
2024-03-03T20:27:13.929Z,1.73
2024-03-03T20:29:42.923Z,0.70
2024-03-03T20:32:11.404Z,1.60
2024-03-03T20:34:40.011Z,1.13
2024-03-03T20:37:10.592Z,0.83
2024-03-03T20:39:39.197Z,2.47
2024-03-03T20:42:08.148Z,1.20
2024-03-03T20:44:36.701Z,2.20
2024-03-03T20:47:05.977Z,2.60
2024-03-03T20:49:34.552Z,1.40
2024-03-03T20:52:03.079Z,1.03
2024-03-03T20:54:33.109Z,2.07
2024-03-03T20:57:02.644Z,1.20
2024-03-03T20:59:31.179Z,0.83
2024-03-03T21:01:59.819Z,0.90
2024-03-03T21:04:28.549Z,0.30
2024-03-03T21:06:57.196Z,1.60
2024-03-03T21:09:25.814Z,1.03
2024-03-03T21:11:55.840Z,1.10
2024-03-03T21:14:24.469Z,0.60
2024-03-03T21:16:52.946Z,0.30
2024-03-03T21:19:21.682Z,0.40
2024-03-03T21:21:50.280Z,0.70
2024-03-03T21:24:18.976Z,0.60
2024-03-03T21:26:47.592Z,0.53
2024-03-03T21:29:17.623Z,0.50
2024-03-03T21:31:46.213Z,0.40
2024-03-03T21:34:14.865Z,1.07
2024-03-03T21:36:43.497Z,1.00
2024-03-03T21:39:12.079Z,0.60
2024-03-03T21:41:41.369Z,0.93
2024-03-03T21:44:09.831Z,0.37
2024-03-03T21:46:40.101Z,0.60
2024-03-03T21:49:08.722Z,0.70
2024-03-03T21:51:38.195Z,0.93
2024-03-03T21:54:06.840Z,0.67
2024-03-03T21:56:35.477Z,1.33
2024-03-03T21:59:04.087Z,0.90
2024-03-03T22:01:32.777Z,0.90
2024-03-03T22:04:03.437Z,1.00
2024-03-03T22:06:32.006Z,2.07
2024-03-03T22:09:00.829Z,0.97
2024-03-03T22:11:29.328Z,1.03
2024-03-03T22:13:59.086Z,1.77
2024-03-03T22:16:27.669Z,2.00
2024-03-03T22:18:56.186Z,1.20
2024-03-03T22:21:27.735Z,1.77
2024-03-03T22:23:56.204Z,1.17
2024-03-03T22:26:24.981Z,1.83
2024-03-03T22:28:53.766Z,0.60
2024-03-03T22:31:22.415Z,0.90
2024-03-03T22:33:50.999Z,1.63
2024-03-03T22:36:19.664Z,1.33
2024-03-03T22:38:49.646Z,2.20
2024-03-03T22:41:18.291Z,0.90
2024-03-03T22:43:46.928Z,1.17
2024-03-03T22:46:17.656Z,0.63
2024-03-03T22:48:46.345Z,1.53
2024-03-03T22:51:15.046Z,0.80
2024-03-03T22:53:43.581Z,1.73
2024-03-03T22:56:13.637Z,1.50
2024-03-03T22:58:42.234Z,0.70
2024-03-03T23:01:10.855Z,0.80
2024-03-03T23:03:40.363Z,1.20
2024-03-03T23:06:10.903Z,0.60
2024-03-03T23:08:40.923Z,0.60
2024-03-03T23:11:09.575Z,0.60
2024-03-03T23:13:39.594Z,0.40
2024-03-03T23:16:09.263Z,0.50
2024-03-03T23:18:37.884Z,0.87
2024-03-03T23:21:07.032Z,0.70
2024-03-03T23:23:35.632Z,0.80
2024-03-03T23:26:04.119Z,0.30
2024-03-03T23:28:32.751Z,0.50
2024-03-03T23:31:03.820Z,0.60
2024-03-03T23:33:32.962Z,0.60
2024-03-03T23:36:01.723Z,0.60
2024-03-03T23:38:30.322Z,0.73
2024-03-03T23:40:58.831Z,1.17
2024-03-03T23:43:27.304Z,1.13
2024-03-03T23:45:55.993Z,0.50
2024-03-03T23:48:26.012Z,0.50
2024-03-03T23:50:54.543Z,0.50
2024-03-03T23:53:23.193Z,0.90
2024-03-03T23:55:53.035Z,2.67
2024-03-03T23:58:21.770Z,0.60
